Time;durP1;ratioP1;P1;durP2;ratioP2;P2;SDS_P1;SDS_P2;PMS_P1;PMS_P2;Temp;Humidity;BMP_temperature;BMP_pressure;BME280_temperature;BME280_humidity;BME280_pressure;Samples;Min_cycle;Max_cycle;Signal;HPM_P1;HPM_P2
2023/06/22 00:11:24;;;;;;;18.00;14.02;;;;;;;;;;4914792;29;20052;-83
2023/06/22 00:51:01;;;;;;;16.58;14.85;;;;;;;;;;4585883;31;20052;-80
2023/06/22 01:56:18;;;;;;;19.17;16.65;;;;;;;;;;4786431;30;20055;-82
2023/06/22 02:04:01;;;;;;;21.08;15.68;;;;;;;;;;4767562;29;20044;-83
2023/06/22 02:11:29;;;;;;;20.67;16.27;;;;;;;;;;4773150;30;20043;-83
2023/06/22 03:06:28;;;;;;;20.70;17.42;;;;;;;;;;4925988;29;20044;-84
2023/06/22 03:15:03;;;;;;;20.88;16.75;;;;;;;;;;4916141;29;20052;-84
2023/06/22 03:19:00;;;;;;;;;;;;;;;;;;;;;
2023/06/22 03:22:11;;;;;;;18.70;15.73;;;;;;;;;;4919111;29;20490;-85
2023/06/22 03:24:57;;;;;;;21.48;17.15;;;;;;;;;;4905851;29;20048;-84
2023/06/22 03:27:43;;;;;;;19.67;16.75;;;;;;;;;;4898370;29;20047;-84
2023/06/22 03:30:32;;;;;;;18.42;16.05;;;;;;;;;;4898500;29;20044;-84
2023/06/22 03:33:36;;;;;;;18.05;15.80;;;;;;;;;;4898738;29;20494;-84
2023/06/22 03:40:36;;;;;;;19.98;16.13;;;;;;;;;;4866353;29;20060;-83
2023/06/22 03:43:33;;;;;;;22.88;16.58;;;;;;;;;;4909972;29;20052;-86
2023/06/22 03:46:19;;;;;;;17.13;15.13;;;;;;;;;;4911273;29;20052;-86
2023/06/22 03:53:40;;;;;;;17.30;15.50;;;;;;;;;;4903648;29;20056;-86
2023/06/22 05:12:54;;;;;;;18.70;14.43;;;;;;;;;;4923566;29;20048;-82
2023/06/22 05:16:12;;;;;;;;;;;;;;;;;;;;;
2023/06/22 05:19:45;;;;;;;22.05;14.98;;;;;;;;;;4917364;29;20048;-88
2023/06/22 05:26:47;;;;;;;20.92;13.57;;;;;;;;;;4887725;29;20048;-86
2023/06/22 05:29:37;;;;;;;19.73;13.23;;;;;;;;;;4896443;29;20048;-85
2023/06/22 05:45:21;;;;;;;;;;;;;;;;;;4854476;29;20404;-85
2023/06/22 06:09:32;;;;;;;18.08;13.48;;;;;;;;;;4840602;29;20046;-84
2023/06/22 06:12:17;;;;;;;20.02;13.57;;;;;;;;;;4827718;29;20049;-84
2023/06/22 06:15:31;;;;;;;15.55;12.82;;;;;;;;;;4892217;29;20045;-84
2023/06/22 06:18:25;;;;;;;15.77;13.20;;;;;;;;;;4893607;29;20049;-85
2023/06/22 06:21:11;;;;;;;16.83;14.20;;;;;;;;;;4880844;29;20044;-86
2023/06/22 06:24:00;;;;;;;15.65;12.93;;;;;;;;;;4901337;29;20049;-84
2023/06/22 06:26:48;;;;;;;22.17;14.77;;;;;;;;;;4880691;29;20045;-84
2023/06/22 06:29:34;;;;;;;26.88;18.73;;;;;;;;;;4880428;29;20049;-84
2023/06/22 06:32:48;;;;;;;26.15;19.77;;;;;;;;;;4901255;29;20498;-84
2023/06/22 06:35:35;;;;;;;31.80;19.88;;;;;;;;;;4894092;29;20049;-84
2023/06/22 06:38:20;;;;;;;34.75;19.67;;;;;;;;;;4893091;29;20052;-84
2023/06/22 06:41:24;;;;;;;29.67;19.25;;;;;;;;;;4901144;29;20052;-84
2023/06/22 07:24:01;;;;;;;17.77;13.00;;;;;;;;;;4918853;29;20048;-85
2023/06/22 07:32:22;;;;;;;15.85;12.68;;;;;;;;;;4925398;29;20047;-83
2023/06/22 07:58:07;;;;;;;15.75;11.18;;;;;;;;;;4908806;29;20053;-85
2023/06/22 08:00:56;;;;;;;17.65;12.55;;;;;;;;;;4904445;29;20494;-86
2023/06/22 08:08:00;;;;;;;15.55;12.40;;;;;;;;;;4924732;29;20040;-77
2023/06/22 08:10:45;;;;;;;14.95;11.80;;;;;;;;;;4918340;29;20407;-77
2023/06/22 08:13:31;;;;;;;13.57;10.93;;;;;;;;;;4918525;29;20040;-76
2023/06/22 08:16:17;;;;;;;14.05;11.25;;;;;;;;;;4918026;29;20043;-77
2023/06/22 08:19:02;;;;;;;17.92;11.90;;;;;;;;;;4924931;29;20398;-77
2023/06/22 08:21:48;;;;;;;13.35;11.02;;;;;;;;;;4918080;29;20044;-77
2023/06/22 08:24:33;;;;;;;17.70;11.02;;;;;;;;;;4918493;29;20040;-79
2023/06/22 08:27:21;;;;;;;12.35;10.50;;;;;;;;;;4918354;29;20044;-77
2023/06/22 08:30:10;;;;;;;14.25;11.35;;;;;;;;;;4924773;29;20044;-76
2023/06/22 08:32:56;;;;;;;15.75;10.35;;;;;;;;;;4924441;29;20059;-77
2023/06/22 08:35:42;;;;;;;12.82;10.48;;;;;;;;;;4924375;29;20052;-77
2023/06/22 08:38:27;;;;;;;16.85;11.30;;;;;;;;;;4917732;29;20047;-77
2023/06/22 08:41:13;;;;;;;14.07;10.30;;;;;;;;;;4918673;29;20395;-76
2023/06/22 08:43:59;;;;;;;17.85;10.43;;;;;;;;;;4917796;29;20052;-77
2023/06/22 08:46:44;;;;;;;15.00;9.50;;;;;;;;;;4917959;29;20051;-77
2023/06/22 08:49:33;;;;;;;10.57;9.48;;;;;;;;;;4919645;29;20056;-81
2023/06/22 08:52:19;;;;;;;10.98;9.45;;;;;;;;;;4918810;29;20047;-77
2023/06/22 08:55:06;;;;;;;12.55;10.20;;;;;;;;;;4924560;29;20398;-79
2023/06/22 08:57:51;;;;;;;15.15;10.25;;;;;;;;;;4918274;29;20483;-77
2023/06/22 09:00:37;;;;;;;17.35;11.40;;;;;;;;;;4917339;29;20044;-77
2023/06/22 09:03:26;;;;;;;15.25;11.07;;;;;;;;;;4917218;29;20040;-76
2023/06/22 09:06:13;;;;;;;24.90;11.60;;;;;;;;;;4917397;29;20048;-77
2023/06/22 09:09:02;;;;;;;18.83;11.43;;;;;;;;;;4918063;29;20048;-77
2023/06/22 09:11:47;;;;;;;14.50;10.45;;;;;;;;;;4917700;29;20051;-77
2023/06/22 09:14:33;;;;;;;20.48;10.45;;;;;;;;;;4917573;29;20040;-78
2023/06/22 09:17:19;;;;;;;13.82;9.93;;;;;;;;;;4923173;29;20052;-78
2023/06/22 09:20:05;;;;;;;14.88;10.65;;;;;;;;;;4909750;29;20044;-75
2023/06/22 09:22:50;;;;;;;15.70;10.77;;;;;;;;;;4918089;29;20056;-80
2023/06/22 09:25:36;;;;;;;12.50;9.52;;;;;;;;;;4926871;29;20490;-80
2023/06/22 09:28:22;;;;;;;14.07;10.27;;;;;;;;;;4919655;29;20043;-81
2023/06/22 09:31:07;;;;;;;15.85;9.10;;;;;;;;;;4918724;29;20048;-80
2023/06/22 09:33:54;;;;;;;17.17;9.27;;;;;;;;;;4920810;29;20055;-82
2023/06/22 09:36:41;;;;;;;14.27;9.32;;;;;;;;;;4911639;29;20036;-81
2023/06/22 09:39:26;;;;;;;10.93;7.68;;;;;;;;;;4920408;29;20052;-82
2023/06/22 09:42:13;;;;;;;15.43;7.22;;;;;;;;;;4934021;29;20052;-79
2023/06/22 09:44:58;;;;;;;14.55;8.23;;;;;;;;;;4940491;29;20048;-81
2023/06/22 09:47:44;;;;;;;10.23;8.20;;;;;;;;;;4932305;29;20044;-81
2023/06/22 09:50:29;;;;;;;13.68;7.40;;;;;;;;;;4926778;29;20040;-80
2023/06/22 09:53:15;;;;;;;16.73;7.63;;;;;;;;;;4927484;29;20036;-80
2023/06/22 09:56:01;;;;;;;8.68;6.03;;;;;;;;;;4923082;29;20514;-81
2023/06/22 09:58:50;;;;;;;9.15;5.47;;;;;;;;;;4922152;29;20048;-79
2023/06/22 10:01:35;;;;;;;5.82;5.00;;;;;;;;;;4928290;29;20048;-79
2023/06/22 10:04:20;;;;;;;5.93;4.68;;;;;;;;;;4923160;29;20406;-82
2023/06/22 10:07:07;;;;;;;7.95;4.90;;;;;;;;;;4921631;29;20044;-80
2023/06/22 10:09:52;;;;;;;6.75;5.07;;;;;;;;;;4926550;29;20056;-78
2023/06/22 10:13:02;;;;;;;8.10;5.18;;;;;;;;;;4927105;29;20402;-81
2023/06/22 10:15:51;;;;;;;7.03;4.57;;;;;;;;;;4920825;29;20052;-76
2023/06/22 10:18:36;;;;;;;8.23;4.72;;;;;;;;;;4926806;29;20048;-78
2023/06/22 10:21:22;;;;;;;8.40;4.65;;;;;;;;;;4920207;29;20044;-80
2023/06/22 10:24:08;;;;;;;7.38;4.88;;;;;;;;;;4926470;29;20406;-79
2023/06/22 10:26:53;;;;;;;13.35;5.10;;;;;;;;;;4920605;29;20513;-79
2023/06/22 10:29:38;;;;;;;6.40;5.22;;;;;;;;;;4920006;29;20048;-85
2023/06/22 10:32:23;;;;;;;6.32;5.07;;;;;;;;;;4912927;29;20052;-84
2023/06/22 10:35:15;;;;;;;6.93;5.50;;;;;;;;;;4921442;29;20040;-85
2023/06/22 10:38:00;;;;;;;7.00;5.28;;;;;;;;;;4920699;29;20040;-86
2023/06/22 10:40:46;;;;;;;9.30;5.32;;;;;;;;;;4920675;29;20048;-85
2023/06/22 10:43:32;;;;;;;8.05;5.50;;;;;;;;;;4920621;29;20044;-86
2023/06/22 10:46:17;;;;;;;10.88;5.47;;;;;;;;;;4922947;29;20056;-88
2023/06/22 10:49:03;;;;;;;7.47;5.38;;;;;;;;;;4921014;29;20044;-85
2023/06/22 10:51:48;;;;;;;11.48;5.38;;;;;;;;;;4921169;29;20048;-89
2023/06/22 10:54:35;;;;;;;8.55;5.63;;;;;;;;;;4921927;29;20044;-88
2023/06/22 10:57:22;;;;;;;5.65;5.07;;;;;;;;;;4921289;29;20478;-87
2023/06/22 11:00:08;;;;;;;7.10;5.57;;;;;;;;;;4920879;29;20414;-88
2023/06/22 11:02:56;;;;;;;8.60;5.63;;;;;;;;;;4927865;29;20055;-87
2023/06/22 11:05:41;;;;;;;6.55;5.53;;;;;;;;;;4929460;29;20044;-86
2023/06/22 11:08:27;;;;;;;6.30;5.63;;;;;;;;;;4910486;29;20044;-85
2023/06/22 11:11:12;;;;;;;6.45;5.75;;;;;;;;;;4905950;29;20411;-88
2023/06/22 11:13:58;;;;;;;9.45;5.63;;;;;;;;;;4920483;29;20048;-85
2023/06/22 11:16:43;;;;;;;7.43;5.65;;;;;;;;;;4919798;29;20052;-86
2023/06/22 11:19:29;;;;;;;7.38;6.07;;;;;;;;;;4926708;29;20048;-84
2023/06/22 11:22:15;;;;;;;7.65;6.03;;;;;;;;;;4928742;29;20052;-84
2023/06/22 11:25:00;;;;;;;7.03;5.55;;;;;;;;;;4928021;29;20048;-84
2023/06/22 11:27:45;;;;;;;6.90;5.97;;;;;;;;;;4912313;29;20044;-85
2023/06/22 11:30:31;;;;;;;6.70;5.60;;;;;;;;;;4920336;29;20044;-86
2023/06/22 11:33:16;;;;;;;7.85;6.50;;;;;;;;;;4918476;29;20041;-86
2023/06/22 11:36:01;;;;;;;12.02;6.43;;;;;;;;;;4919430;29;20048;-86
2023/06/22 11:38:46;;;;;;;8.25;6.57;;;;;;;;;;4918692;29;20057;-85
2023/06/22 11:41:32;;;;;;;7.68;6.22;;;;;;;;;;4919636;29;20055;-86
2023/06/22 11:44:17;;;;;;;8.90;6.07;;;;;;;;;;4918896;29;20052;-88
2023/06/22 11:47:04;;;;;;;7.75;6.60;;;;;;;;;;4920938;29;20059;-90
2023/06/22 11:49:49;;;;;;;6.88;6.07;;;;;;;;;;4917798;29;20044;-85
2023/06/22 11:52:38;;;;;;;7.78;5.63;;;;;;;;;;4919122;29;20051;-89
2023/06/22 11:55:38;;;;;;;6.68;6.03;;;;;;;;;;4905396;29;20395;-86
2023/06/22 11:58:24;;;;;;;8.07;6.15;;;;;;;;;;4896007;29;20565;-85
2023/06/22 12:01:46;;;;;;;9.98;6.32;;;;;;;;;;4904348;29;20044;-87
2023/06/22 12:04:42;;;;;;;7.25;6.32;;;;;;;;;;4897802;29;20048;-89
2023/06/22 12:08:02;;;;;;;7.97;6.22;;;;;;;;;;4897729;29;20425;-85
2023/06/22 12:10:49;;;;;;;8.32;6.65;;;;;;;;;;4849581;29;20056;-87
2023/06/22 12:13:35;;;;;;;11.93;5.93;;;;;;;;;;4898043;29;20048;-87
2023/06/22 12:16:21;;;;;;;8.85;6.65;;;;;;;;;;4926580;29;20052;-86
2023/06/22 12:19:06;;;;;;;10.10;6.63;;;;;;;;;;4926093;29;20047;-87
2023/06/22 12:21:51;;;;;;;10.00;6.78;;;;;;;;;;4911935;29;20048;-87
2023/06/22 12:24:37;;;;;;;12.15;6.68;;;;;;;;;;4920206;29;20040;-87
2023/06/22 12:27:23;;;;;;;8.88;6.57;;;;;;;;;;4904057;29;20043;-88
2023/06/22 12:30:09;;;;;;;9.35;6.50;;;;;;;;;;4920165;29;20055;-89
2023/06/22 12:32:54;;;;;;;9.43;6.55;;;;;;;;;;4918806;29;20052;-86
2023/06/22 12:35:40;;;;;;;7.28;6.45;;;;;;;;;;4903853;29;20047;-85
2023/06/22 12:38:25;;;;;;;11.40;6.85;;;;;;;;;;4918223;29;20048;-85
2023/06/22 12:41:12;;;;;;;10.48;7.07;;;;;;;;;;4920743;29;20494;-88
2023/06/22 12:43:58;;;;;;;8.27;6.40;;;;;;;;;;4918103;29;20406;-85
2023/06/22 12:46:45;;;;;;;11.75;6.65;;;;;;;;;;4911417;29;20047;-90
2023/06/22 12:49:31;;;;;;;10.65;6.20;;;;;;;;;;4911962;29;20051;-89
2023/06/22 12:52:16;;;;;;;8.05;6.50;;;;;;;;;;4911190;29;20048;-89
2023/06/22 12:55:02;;;;;;;15.15;6.72;;;;;;;;;;4913533;29;20051;-85
2023/06/22 12:57:47;;;;;;;7.53;6.60;;;;;;;;;;4910842;29;20402;-81
2023/06/22 13:00:33;;;;;;;9.52;6.63;;;;;;;;;;4928596;29;20119;-80
2023/06/22 13:03:19;;;;;;;9.85;6.35;;;;;;;;;;4927304;29;20048;-80
2023/06/22 13:06:04;;;;;;;14.57;7.28;;;;;;;;;;4920869;29;20052;-79
2023/06/22 13:08:50;;;;;;;8.90;7.75;;;;;;;;;;4922965;29;20048;-82
2023/06/22 13:11:35;;;;;;;9.88;6.70;;;;;;;;;;4931481;29;20059;-82
2023/06/22 13:14:21;;;;;;;11.95;6.80;;;;;;;;;;4908722;29;20051;-81
2023/06/22 13:17:06;;;;;;;11.73;7.03;;;;;;;;;;4925649;29;20040;-80
2023/06/22 13:19:52;;;;;;;10.77;6.93;;;;;;;;;;4924188;29;20043;-81
2023/06/22 13:22:39;;;;;;;10.40;7.05;;;;;;;;;;4924165;29;20048;-81
2023/06/22 13:25:26;;;;;;;9.85;7.28;;;;;;;;;;4917760;29;20048;-80
2023/06/22 13:28:13;;;;;;;12.10;7.90;;;;;;;;;;4917781;29;20048;-79
2023/06/22 13:30:58;;;;;;;10.93;7.28;;;;;;;;;;4917502;29;20048;-79
2023/06/22 13:33:47;;;;;;;11.15;7.55;;;;;;;;;;4917667;29;20048;-80
2023/06/22 13:36:33;;;;;;;8.55;7.07;;;;;;;;;;4917649;29;20044;-80
2023/06/22 13:39:18;;;;;;;12.63;7.13;;;;;;;;;;4914544;29;20047;-81
2023/06/22 13:42:04;;;;;;;9.43;7.57;;;;;;;;;;4924359;29;20047;-80
2023/06/22 13:44:49;;;;;;;11.38;7.40;;;;;;;;;;4917741;29;20044;-80
2023/06/22 13:47:35;;;;;;;10.63;6.88;;;;;;;;;;4918534;29;20052;-81
2023/06/22 13:50:20;;;;;;;18.13;8.23;;;;;;;;;;4923422;29;20052;-82
2023/06/22 13:53:06;;;;;;;8.98;6.90;;;;;;;;;;4924269;29;20044;-79
2023/06/22 13:55:51;;;;;;;11.10;6.97;;;;;;;;;;4917471;29;20040;-80
2023/06/22 13:58:41;;;;;;;11.45;6.43;;;;;;;;;;4916482;29;20484;-80
2023/06/22 14:01:26;;;;;;;11.55;6.35;;;;;;;;;;4926444;29;20490;-81
2023/06/22 14:04:11;;;;;;;8.48;6.38;;;;;;;;;;4915423;29;20036;-79
2023/06/22 14:06:57;;;;;;;11.45;6.53;;;;;;;;;;4917679;29;20056;-79
2023/06/22 14:09:42;;;;;;;8.13;5.97;;;;;;;;;;4936782;29;20052;-79
2023/06/22 14:12:28;;;;;;;9.70;5.78;;;;;;;;;;4934758;29;20048;-79
2023/06/22 14:15:14;;;;;;;6.75;5.75;;;;;;;;;;4914805;29;20044;-79
2023/06/22 14:17:59;;;;;;;8.48;5.43;;;;;;;;;;4931962;29;20052;-78
2023/06/22 14:20:46;;;;;;;8.77;5.40;;;;;;;;;;4928320;29;20052;-79
2023/06/22 14:23:31;;;;;;;7.63;5.50;;;;;;;;;;4919087;29;20055;-76
2023/06/22 14:26:17;;;;;;;5.80;4.85;;;;;;;;;;4923984;29;20040;-76
2023/06/22 14:29:03;;;;;;;7.60;5.53;;;;;;;;;;4920297;29;20048;-77
2023/06/22 14:31:49;;;;;;;6.28;5.68;;;;;;;;;;4920609;29;20040;-76
2023/06/22 14:34:39;;;;;;;8.32;5.50;;;;;;;;;;4920880;29;20048;-76
2023/06/22 14:37:24;;;;;;;7.80;5.18;;;;;;;;;;4920316;29;20048;-76
2023/06/22 14:40:11;;;;;;;9.80;5.32;;;;;;;;;;4926597;29;20056;-77
2023/06/22 14:43:01;;;;;;;7.47;5.85;;;;;;;;;;4906233;29;20048;-79
2023/06/22 14:45:47;;;;;;;12.70;5.60;;;;;;;;;;4919765;29;20048;-75
2023/06/22 14:48:32;;;;;;;6.70;5.57;;;;;;;;;;4920229;29;20036;-77
2023/06/22 14:51:18;;;;;;;9.80;5.80;;;;;;;;;;4920377;29;20039;-76
2023/06/22 14:54:04;;;;;;;11.18;6.55;;;;;;;;;;4912092;29;20037;-77
2023/06/22 14:56:50;;;;;;;10.00;6.70;;;;;;;;;;4929875;29;20051;-81
2023/06/22 14:59:36;;;;;;;12.65;5.60;;;;;;;;;;4923130;29;20052;-79
2023/06/22 15:02:22;;;;;;;8.13;5.03;;;;;;;;;;4920120;29;20494;-80
2023/06/22 15:05:08;;;;;;;8.68;5.45;;;;;;;;;;4928827;29;20041;-78
2023/06/22 15:07:52;;;;;;;6.00;4.85;;;;;;;;;;4913916;29;20040;-80
2023/06/22 15:10:38;;;;;;;17.45;6.85;;;;;;;;;;4921851;29;20048;-80
2023/06/22 15:13:24;;;;;;;6.82;5.60;;;;;;;;;;4922180;29;20056;-81
2023/06/22 15:16:10;;;;;;;8.43;4.70;;;;;;;;;;4920303;29;20040;-80
2023/06/22 15:18:55;;;;;;;8.73;4.68;;;;;;;;;;4930372;29;20044;-78
2023/06/22 15:21:41;;;;;;;9.88;5.20;;;;;;;;;;4923080;29;20418;-79
2023/06/22 15:24:26;;;;;;;5.60;4.72;;;;;;;;;;4906636;29;20044;-78
2023/06/22 15:27:13;;;;;;;10.43;4.72;;;;;;;;;;4926345;29;20051;-80
2023/06/22 15:29:58;;;;;;;8.65;5.38;;;;;;;;;;4921518;29;20478;-79
2023/06/22 15:32:44;;;;;;;11.40;5.53;;;;;;;;;;4912381;29;20048;-79
2023/06/22 15:35:30;;;;;;;7.40;5.15;;;;;;;;;;4927269;29;20482;-81
2023/06/22 15:38:15;;;;;;;6.82;4.93;;;;;;;;;;4926143;29;20044;-78
2023/06/22 15:41:01;;;;;;;11.18;5.20;;;;;;;;;;4923627;29;20052;-77
2023/06/22 15:43:46;;;;;;;7.30;5.57;;;;;;;;;;4928065;29;20044;-79
2023/06/22 15:46:32;;;;;;;11.02;5.10;;;;;;;;;;4931546;29;20052;-82
2023/06/22 15:49:17;;;;;;;9.48;5.00;;;;;;;;;;4923665;29;20048;-81
2023/06/22 15:52:03;;;;;;;8.88;5.10;;;;;;;;;;4930459;29;20052;-79
2023/06/22 15:54:54;;;;;;;9.10;4.80;;;;;;;;;;4924757;29;20036;-79
2023/06/22 15:57:39;;;;;;;11.18;5.45;;;;;;;;;;4930707;29;20048;-81
2023/06/22 16:00:26;;;;;;;8.98;5.22;;;;;;;;;;4926404;29;20052;-79
2023/06/22 16:03:11;;;;;;;10.73;5.50;;;;;;;;;;4928318;29;20043;-79
2023/06/22 16:05:57;;;;;;;9.05;6.00;;;;;;;;;;4918130;29;20052;-78
2023/06/22 16:08:43;;;;;;;8.70;5.40;;;;;;;;;;4924803;29;20675;-78
2023/06/22 16:11:29;;;;;;;10.05;5.30;;;;;;;;;;4918545;29;20391;-78
2023/06/22 16:14:15;;;;;;;10.75;5.13;;;;;;;;;;4918440;29;20048;-76
2023/06/22 16:17:00;;;;;;;8.20;5.68;;;;;;;;;;4918230;29;20482;-76
2023/06/22 16:19:46;;;;;;;8.35;5.13;;;;;;;;;;4924696;29;20044;-77
2023/06/22 16:22:32;;;;;;;8.07;5.03;;;;;;;;;;4918616;29;20052;-77
2023/06/22 16:25:17;;;;;;;10.57;5.20;;;;;;;;;;4919196;29;20048;-77
2023/06/22 16:28:03;;;;;;;10.93;5.70;;;;;;;;;;4925704;29;20048;-78
2023/06/22 16:30:49;;;;;;;10.70;5.57;;;;;;;;;;4918702;29;20052;-79
2023/06/22 16:33:34;;;;;;;10.82;5.45;;;;;;;;;;4922276;29;20386;-78
2023/06/22 16:36:21;;;;;;;9.15;5.57;;;;;;;;;;4924780;29;20044;-81
2023/06/22 16:39:06;;;;;;;14.40;5.90;;;;;;;;;;4931493;29;20370;-78
2023/06/22 16:41:52;;;;;;;12.85;5.68;;;;;;;;;;4919237;29;20044;-77
2023/06/22 16:44:37;;;;;;;9.82;5.10;;;;;;;;;;4924453;29;20040;-79
2023/06/22 16:47:23;;;;;;;11.60;5.35;;;;;;;;;;4920223;29;20426;-78
2023/06/22 16:50:09;;;;;;;11.02;5.22;;;;;;;;;;4925299;29;20040;-78
2023/06/22 16:52:58;;;;;;;9.80;5.60;;;;;;;;;;4904331;29;20060;-78
2023/06/22 16:55:48;;;;;;;8.13;5.57;;;;;;;;;;4924191;29;20044;-78
2023/06/22 16:58:35;;;;;;;8.82;5.05;;;;;;;;;;4918509;29;20048;-78
2023/06/22 17:01:24;;;;;;;11.20;5.90;;;;;;;;;;4919752;29;20048;-79
2023/06/22 17:04:11;;;;;;;10.13;5.82;;;;;;;;;;4911512;29;20051;-78
2023/06/22 17:07:03;;;;;;;11.88;5.95;;;;;;;;;;4926160;29;20040;-79
2023/06/22 17:09:50;;;;;;;8.20;6.20;;;;;;;;;;4917871;29;20055;-78
2023/06/22 17:12:37;;;;;;;12.27;6.35;;;;;;;;;;4918705;29;20048;-79
2023/06/22 17:15:22;;;;;;;7.53;6.10;;;;;;;;;;4911695;29;20044;-78
2023/06/22 17:18:08;;;;;;;9.57;6.50;;;;;;;;;;4917501;29;20391;-79
2023/06/22 17:20:54;;;;;;;10.07;6.47;;;;;;;;;;4916920;29;20048;-79
2023/06/22 17:23:40;;;;;;;7.32;6.55;;;;;;;;;;4904571;29;20048;-78
2023/06/22 17:26:25;;;;;;;9.90;6.78;;;;;;;;;;4909400;29;20052;-78
2023/06/22 17:29:10;;;;;;;11.77;7.55;;;;;;;;;;4918757;29;20048;-79
2023/06/22 17:31:57;;;;;;;13.20;8.45;;;;;;;;;;4918820;29;20040;-79
2023/06/22 17:34:42;;;;;;;16.55;8.40;;;;;;;;;;4903639;29;20053;-78
2023/06/22 17:37:33;;;;;;;16.17;9.35;;;;;;;;;;4914026;29;20399;-81
2023/06/22 17:40:23;;;;;;;14.10;8.48;;;;;;;;;;4921881;29;20052;-79
2023/06/22 17:43:10;;;;;;;15.45;8.90;;;;;;;;;;4927120;29;20052;-79
2023/06/22 17:45:59;;;;;;;15.27;9.15;;;;;;;;;;4927967;29;20049;-77
2023/06/22 17:48:45;;;;;;;17.63;9.20;;;;;;;;;;4923687;29;20044;-77
2023/06/22 17:51:30;;;;;;;14.00;8.40;;;;;;;;;;4917380;29;20051;-76
2023/06/22 17:54:16;;;;;;;14.13;7.57;;;;;;;;;;4909595;29;20047;-77
2023/06/22 17:57:01;;;;;;;14.15;7.90;;;;;;;;;;4917277;29;20044;-78
2023/06/22 17:59:50;;;;;;;12.30;7.82;;;;;;;;;;4904161;29;20052;-76
2023/06/22 18:02:39;;;;;;;18.75;8.18;;;;;;;;;;4919417;29;20048;-76
2023/06/22 18:05:35;;;;;;;16.52;7.80;;;;;;;;;;4927539;29;20044;-78
2023/06/22 18:08:26;;;;;;;13.60;9.65;;;;;;;;;;4912578;29;20398;-78
2023/06/22 18:11:13;;;;;;;15.73;8.95;;;;;;;;;;4927195;29;20039;-76
2023/06/22 18:14:00;;;;;;;10.93;7.53;;;;;;;;;;4926915;29;20044;-78
2023/06/22 18:16:51;;;;;;;8.90;7.22;;;;;;;;;;4926507;29;20040;-77
2023/06/22 18:19:38;;;;;;;15.65;8.70;;;;;;;;;;4920389;29;20048;-78
2023/06/22 18:22:28;;;;;;;20.05;9.68;;;;;;;;;;4926373;29;20048;-77
2023/06/22 18:25:17;;;;;;;16.77;9.30;;;;;;;;;;4899930;29;20044;-78
2023/06/22 18:28:03;;;;;;;16.20;9.02;;;;;;;;;;4920397;29;20043;-78
2023/06/22 18:30:49;;;;;;;17.77;10.15;;;;;;;;;;4920353;29;20044;-76
2023/06/22 18:33:34;;;;;;;22.88;9.60;;;;;;;;;;4926615;29;20055;-78
2023/06/22 18:36:24;;;;;;;17.70;10.10;;;;;;;;;;4920495;29;20044;-77
2023/06/22 18:39:11;;;;;;;16.65;9.63;;;;;;;;;;4925927;29;20051;-78
2023/06/22 18:42:01;;;;;;;20.15;9.95;;;;;;;;;;4920404;29;20052;-78
2023/06/22 18:44:52;;;;;;;19.02;9.10;;;;;;;;;;4919638;29;20044;-78
2023/06/22 18:47:37;;;;;;;12.40;9.30;;;;;;;;;;4919841;29;20044;-77
2023/06/22 18:50:42;;;;;;;17.58;9.18;;;;;;;;;;4919841;29;20056;-76
2023/06/22 18:53:28;;;;;;;20.48;9.35;;;;;;;;;;4919802;29;20483;-77
2023/06/22 18:56:15;;;;;;;14.65;9.25;;;;;;;;;;4905519;29;20049;-78
2023/06/22 18:59:00;;;;;;;13.32;9.35;;;;;;;;;;4919143;29;20052;-77
2023/06/22 19:01:45;;;;;;;16.40;9.48;;;;;;;;;;4925814;29;20406;-76
2023/06/22 19:04:31;;;;;;;13.88;9.23;;;;;;;;;;4919762;29;20048;-77
2023/06/22 19:07:17;;;;;;;19.83;9.90;;;;;;;;;;4919505;29;20044;-76
2023/06/22 19:10:25;;;;;;;15.95;9.73;;;;;;;;;;4919154;29;20039;-76
2023/06/22 19:13:13;;;;;;;20.30;9.98;;;;;;;;;;4919173;29;20056;-78
2023/06/22 19:16:16;;;;;;;20.75;10.00;;;;;;;;;;4919365;29;20512;-77
2023/06/22 19:19:12;;;;;;;15.48;9.88;;;;;;;;;;4919415;29;20047;-78
2023/06/22 19:22:01;;;;;;;15.80;10.20;;;;;;;;;;4918685;29;20044;-76
2023/06/22 19:24:51;;;;;;;17.95;10.00;;;;;;;;;;4919641;29;20048;-76
2023/06/22 19:27:36;;;;;;;11.90;9.90;;;;;;;;;;4919351;29;20390;-76
2023/06/22 19:30:22;;;;;;;17.08;9.65;;;;;;;;;;4919149;29;20048;-75
2023/06/22 19:33:07;;;;;;;17.98;11.23;;;;;;;;;;4919390;29;20044;-75
2023/06/22 19:35:58;;;;;;;20.58;10.57;;;;;;;;;;4904589;29;20043;-76
2023/06/22 19:38:44;;;;;;;14.23;11.10;;;;;;;;;;4918180;29;20486;-76
2023/06/22 19:41:30;;;;;;;14.70;10.63;;;;;;;;;;4919142;29;20044;-76
2023/06/22 19:44:15;;;;;;;18.08;11.40;;;;;;;;;;4918880;29;20047;-77
2023/06/22 19:47:01;;;;;;;17.83;10.98;;;;;;;;;;4919602;29;20048;-85
2023/06/22 19:50:01;;;;;;;18.20;10.60;;;;;;;;;;4929833;29;20675;-83
2023/06/22 19:52:47;;;;;;;18.27;11.82;;;;;;;;;;4905025;29;20052;-84
2023/06/22 19:55:33;;;;;;;17.15;11.27;;;;;;;;;;4919272;29;20044;-84
2023/06/22 19:58:20;;;;;;;14.93;11.48;;;;;;;;;;4904730;29;20052;-83
2023/06/22 20:01:04;;;;;;;20.25;12.93;;;;;;;;;;4911649;29;20040;-85
2023/06/22 20:03:55;;;;;;;19.02;12.57;;;;;;;;;;4918062;29;20410;-84
2023/06/22 20:06:40;;;;;;;18.45;12.35;;;;;;;;;;4896413;29;20499;-84
2023/06/22 20:09:25;;;;;;;19.15;13.75;;;;;;;;;;4918496;29;20414;-83
2023/06/22 20:12:32;;;;;;;15.55;13.15;;;;;;;;;;4910843;29;20044;-86
2023/06/22 20:15:28;;;;;;;15.38;11.23;;;;;;;;;;4919045;29;20047;-83
2023/06/22 20:18:15;;;;;;;15.25;10.82;;;;;;;;;;4910857;29;20048;-83
2023/06/22 20:21:01;;;;;;;18.80;11.23;;;;;;;;;;4918246;29;20047;-84
2023/06/22 20:23:46;;;;;;;15.02;10.60;;;;;;;;;;4918217;29;20059;-84
2023/06/22 20:26:46;;;;;;;14.40;10.20;;;;;;;;;;4904571;29;20052;-83
2023/06/22 20:29:34;;;;;;;12.57;10.48;;;;;;;;;;4904412;29;20044;-83
2023/06/22 20:32:21;;;;;;;16.70;10.68;;;;;;;;;;4919103;29;20051;-85
2023/06/22 20:35:07;;;;;;;13.30;10.07;;;;;;;;;;4904937;29;20052;-83
2023/06/22 20:37:55;;;;;;;19.30;10.57;;;;;;;;;;4918851;29;20463;-85
2023/06/22 20:40:41;;;;;;;14.82;10.13;;;;;;;;;;4914527;29;20051;-83
2023/06/22 20:43:26;;;;;;;14.60;9.95;;;;;;;;;;4917946;29;20055;-85
2023/06/22 20:46:12;;;;;;;13.05;9.50;;;;;;;;;;4917370;29;20048;-85
2023/06/22 20:48:58;;;;;;;12.52;9.13;;;;;;;;;;4910746;29;20478;-82
2023/06/22 20:51:43;;;;;;;11.43;8.93;;;;;;;;;;4926567;29;20052;-84
2023/06/22 20:54:29;;;;;;;13.52;9.52;;;;;;;;;;4927854;29;20056;-82
2023/06/22 20:57:14;;;;;;;11.98;9.43;;;;;;;;;;4918283;29;20040;-84
2023/06/22 21:00:06;;;;;;;11.30;8.95;;;;;;;;;;4917398;29;20510;-83
2023/06/22 21:02:52;;;;;;;12.35;9.60;;;;;;;;;;4910614;29;20044;-86
2023/06/22 21:05:40;;;;;;;15.45;9.85;;;;;;;;;;4910272;29;20048;-83
2023/06/22 21:08:32;;;;;;;12.15;9.05;;;;;;;;;;4918582;29;20051;-86
2023/06/22 21:11:21;;;;;;;13.38;9.55;;;;;;;;;;4904571;29;20051;-83
2023/06/22 21:14:07;;;;;;;12.10;9.82;;;;;;;;;;4918523;29;20060;-89
2023/06/22 21:16:55;;;;;;;13.85;9.48;;;;;;;;;;4918974;29;20044;-84
2023/06/22 21:19:41;;;;;;;12.55;9.77;;;;;;;;;;4918211;29;20056;-82
2023/06/22 21:22:30;;;;;;;11.63;9.48;;;;;;;;;;4918017;29;20040;-83
2023/06/22 21:25:30;;;;;;;14.63;10.23;;;;;;;;;;4918039;29;20409;-85
2023/06/22 21:28:20;;;;;;;12.38;10.13;;;;;;;;;;4904170;29;20040;-85
2023/06/22 21:31:05;;;;;;;14.55;9.07;;;;;;;;;;4903556;29;20402;-83
2023/06/22 21:33:51;;;;;;;12.57;9.55;;;;;;;;;;4904308;29;20052;-83
2023/06/22 21:36:36;;;;;;;12.95;9.85;;;;;;;;;;4920027;29;20048;-85
2023/06/22 21:39:22;;;;;;;14.85;9.90;;;;;;;;;;4908413;29;20398;-86
2023/06/22 21:42:07;;;;;;;15.85;10.38;;;;;;;;;;4921371;29;20490;-85
2023/06/22 21:44:55;;;;;;;20.00;10.50;;;;;;;;;;4921220;29;20036;-85
2023/06/22 21:47:41;;;;;;;19.15;10.07;;;;;;;;;;4900548;29;20051;-85
2023/06/22 21:50:26;;;;;;;12.40;9.30;;;;;;;;;;4899925;29;20394;-85
2023/06/22 21:53:12;;;;;;;17.23;10.05;;;;;;;;;;4921411;29;20036;-85
2023/06/22 21:55:57;;;;;;;13.98;10.00;;;;;;;;;;4914394;29;20044;-85
2023/06/22 21:58:43;;;;;;;13.90;9.65;;;;;;;;;;4927003;29;20482;-86
2023/06/22 22:01:29;;;;;;;12.63;9.48;;;;;;;;;;4906929;29;20051;-86
2023/06/22 22:04:15;;;;;;;11.30;9.68;;;;;;;;;;4906874;29;20486;-86
2023/06/22 22:07:01;;;;;;;14.88;9.68;;;;;;;;;;4928687;29;20044;-85
2023/06/22 22:09:47;;;;;;;13.15;9.52;;;;;;;;;;4929416;29;20054;-86
2023/06/22 22:12:38;;;;;;;12.27;9.60;;;;;;;;;;4921758;29;20052;-87
2023/06/22 22:15:25;;;;;;;12.73;9.32;;;;;;;;;;4901696;29;20402;-84
2023/06/22 22:18:11;;;;;;;11.25;9.70;;;;;;;;;;4924126;29;20051;-79
2023/06/22 22:20:57;;;;;;;15.35;10.05;;;;;;;;;;4921117;29;20402;-84
2023/06/22 22:23:42;;;;;;;13.18;9.90;;;;;;;;;;4906502;29;20498;-82
2023/06/22 22:26:28;;;;;;;13.85;10.35;;;;;;;;;;4930864;29;20044;-81
2023/06/22 22:29:14;;;;;;;14.15;9.77;;;;;;;;;;4921165;29;20044;-82
2023/06/22 22:32:00;;;;;;;14.55;10.35;;;;;;;;;;4920524;29;20051;-83
2023/06/22 22:34:46;;;;;;;16.08;10.25;;;;;;;;;;4920302;29;20419;-83
2023/06/22 22:37:31;;;;;;;14.32;10.30;;;;;;;;;;4920490;29;20048;-83
2023/06/22 22:41:01;;;;;;;15.48;10.93;;;;;;;;;;4921816;29;20055;-87
2023/06/22 22:44:40;;;;;;;12.15;10.73;;;;;;;;;;4918450;29;20420;-83
2023/06/22 22:47:40;;;;;;;15.65;11.45;;;;;;;;;;4904175;29;20052;-84
2023/06/22 23:16:56;;;;;;;15.23;10.25;;;;;;;;;;4806772;29;20050;-83